Allure of the Seas — C6XS8 — position and weather

sailwx.info

Track history (hours):
 
Tides and Currents Weather Stations Pressure Air Temp Water Temp Dewpoint Dewpoint Depression Visibility Wind Speed Wind Dir Waves Ship Positions

Allure of the Seas

Last reported at 2020-Jul-13 02:57 UTC. Time now 2020-Jul-14 12:49 UTC.
Position N 50°54' W 001°25'.

; draft 9 m.

Type: Passenger vessel. MMSI: 311020700.

Date/timePositionNaut miles runAvg speedWind from/ knotsBaromVisibWave heightAir tempDewpointWater temp
2020-Jul-13 02:57N 50°54' W 001°25'40 8.2
2020-Jul-12 22:03N 50°14' W 001°18'311.8
2020-Jul-12 21:45N 50°12' W 001°22'3412.3
2020-Jul-12 18:58N 49°59' W 002°12'612.4
2020-Jul-12 18:30N 49°58' W 002°21'5012.4
2020-Jul-12 14:30N 49°39' W 003°32'1412.7
2020-Jul-12 13:22N 49°31' W 003°51'1112.3
2020-Jul-12 12:30N 49°26' W 004°04'1811.9
2020-Jul-12 11:00N 49°16' W 004°28'4212.0
2020-Jul-12 07:29N 48°54' W 005°23'3514.2
2020-Jul-12 05:00N 48°24' W 005°52'5313.8
2020-Jul-12 01:08N 47°35' W 006°23'53812.6
2020-Jul-10 06:30N 39°01' W 009°58'713.8
2020-Jul-10 06:00N 38°54' W 009°57'713.9
2020-Jul-10 05:30N 38°47' W 009°57'4313.4
2020-Jul-10 02:16N 38°05' W 009°46'413.6
2020-Jul-10 02:00N 38°01' W 009°45'613.3
2020-Jul-10 01:30N 37°55' W 009°43'713.1
2020-Jul-10 01:01N 37°48' W 009°41'713.5
2020-Jul-10 00:30N 37°42' W 009°39'3513.5
2020-Jul-09 21:55N 37°08' W 009°30'3113.5
2020-Jul-09 19:38N 36°40' W 009°11'5113.8
2020-Jul-09 15:55N 36°35' W 008°08'1314.2
2020-Jul-09 15:00N 36°34' W 007°52'29 6.0
2020-Jul-09 10:06N 36°41' W 007°17'8 0.7
2020-Jul-08 21:48N 36°47' W 007°24'6 3.9
2020-Jul-08 20:23N 36°41' W 007°24'12 3.9
2020-Jul-08 17:22N 36°30' W 007°21'1 2.9
2020-Jul-08 17:00N 36°31' W 007°21'4 1.4
2020-Jul-08 13:56N 36°31' W 007°16'2 0.2
2020-Jul-08 05:07N 36°31' W 007°14'8 1.1
2020-Jul-07 21:45N 36°35' W 007°22'12 2.1
2020-Jul-07 16:00N 36°26' W 007°32'3 1.0
2020-Jul-07 12:58N 36°28' W 007°29'6 4.3
2020-Jul-07 11:30N 36°34' W 007°29'3 7.0
2020-Jul-07 11:00N 36°35' W 007°25'  
2020-Jul-04 18:28N 36°45' W 007°23'22 3.1
2020-Jul-04 11:22N 36°27' W 007°07'8 0.6
2020-Jul-03 21:21N 36°34' W 007°13'1 1.3
2020-Jul-03 20:43N 36°34' W 007°14'4 1.3
2020-Jul-03 17:56N 36°32' W 007°18'8 5.6
2020-Jul-03 16:29N 36°33' W 007°08'1413.7
2020-Jul-03 15:27N 36°33' W 006°50'  
Track history (hours):
 
Tides and Currents Weather Stations Pressure Air Temp Water Temp Dewpoint Dewpoint Depression Visibility Wind Speed Wind Dir Waves Ship Positions

Allure of the Seas

Last reported at 2020-Jul-13 02:57 UTC. Time now 2020-Jul-14 12:49 UTC.
Position N 50°54' W 001°25'.

; draft 9 m.

Type: Passenger vessel. MMSI: 311020700.

Date/timePositionNaut miles runAvg speedWind from/ knotsBaromVisibWave heightAir tempDewpointWater temp
2020-Jul-13 02:57N 50°54' W 001°25'40 8.2
2020-Jul-12 22:03N 50°14' W 001°18'311.8
2020-Jul-12 21:45N 50°12' W 001°22'3412.3
2020-Jul-12 18:58N 49°59' W 002°12'612.4
2020-Jul-12 18:30N 49°58' W 002°21'5012.4
2020-Jul-12 14:30N 49°39' W 003°32'1412.7
2020-Jul-12 13:22N 49°31' W 003°51'1112.3
2020-Jul-12 12:30N 49°26' W 004°04'1811.9
2020-Jul-12 11:00N 49°16' W 004°28'4212.0
2020-Jul-12 07:29N 48°54' W 005°23'3514.2
2020-Jul-12 05:00N 48°24' W 005°52'5313.8
2020-Jul-12 01:08N 47°35' W 006°23'53812.6
2020-Jul-10 06:30N 39°01' W 009°58'713.8
2020-Jul-10 06:00N 38°54' W 009°57'713.9
2020-Jul-10 05:30N 38°47' W 009°57'4313.4
2020-Jul-10 02:16N 38°05' W 009°46'413.6
2020-Jul-10 02:00N 38°01' W 009°45'613.3
2020-Jul-10 01:30N 37°55' W 009°43'713.1
2020-Jul-10 01:01N 37°48' W 009°41'713.5
2020-Jul-10 00:30N 37°42' W 009°39'3513.5
2020-Jul-09 21:55N 37°08' W 009°30'3113.5
2020-Jul-09 19:38N 36°40' W 009°11'5113.8
2020-Jul-09 15:55N 36°35' W 008°08'1314.2
2020-Jul-09 15:00N 36°34' W 007°52'29 6.0
2020-Jul-09 10:06N 36°41' W 007°17'8 0.7
2020-Jul-08 21:48N 36°47' W 007°24'6 3.9
2020-Jul-08 20:23N 36°41' W 007°24'12 3.9
2020-Jul-08 17:22N 36°30' W 007°21'1 2.9
2020-Jul-08 17:00N 36°31' W 007°21'4 1.4
2020-Jul-08 13:56N 36°31' W 007°16'2 0.2
2020-Jul-08 05:07N 36°31' W 007°14'8 1.1
2020-Jul-07 21:45N 36°35' W 007°22'12 2.1
2020-Jul-07 16:00N 36°26' W 007°32'3 1.0
2020-Jul-07 12:58N 36°28' W 007°29'6 4.3
2020-Jul-07 11:30N 36°34' W 007°29'3 7.0
2020-Jul-07 11:00N 36°35' W 007°25'  
2020-Jul-04 18:28N 36°45' W 007°23'22 3.1
2020-Jul-04 11:22N 36°27' W 007°07'8 0.6
2020-Jul-03 21:21N 36°34' W 007°13'1 1.3
2020-Jul-03 20:43N 36°34' W 007°14'4 1.3
2020-Jul-03 17:56N 36°32' W 007°18'8 5.6
2020-Jul-03 16:29N 36°33' W 007°08'1413.7
2020-Jul-03 15:27N 36°33' W 006°50'  

Dump ship's entire track history